Pagrindinis puslapis
METAR-TAF:

METAR-TAF

Oro uostai :

Portorož, Slovėnija

platuma: 45-31N, ilguma: 013-34E, Aukštis: 95 m

Dabartinis oras

Ataskaita buvo paskelbta 33 minutes, ne 18:00 UTC
Vėjas 4 kt iš Pietų/Pietryčių, svyruoja nuo Rytų/Pietryčių ir Pietų/Pietvakarių
Temperatūra 8°C
Drėgmė 87%
Slėgis 996 hPa
Matomumas 10 km arba daugiau
Mažai debesys ne aukštis 1500 ft
Išsisklaidę debesys ne aukštis 2800 ft
Apsiniaukę ne aukštis 4000 ft

METAR: LJPZ 231800Z 16004KT 110V200 9999 FEW015 SCT028 OVC040 08/06 Q0996

Laikas: 19:33 (18:33 UTC)

Prognozė

Ataskaita buvo paskelbta 1 valandą ir 33 minutes, ne 17:00 UTC
Prognozė galioja nuo 23 metu 18 UTC su 24 metu 03 UTC
Vėjas 5 kt iš Pietryčių
Matomumas 10 km arba daugiau
Išsisklaidę debesys ne aukštis 2000 ft
Su prošvaistėmis ne aukštis 3500 ft
Laikinai
nuo 23 metu 18 UTC su 23 metu 21 UTC
lietus

TAF: LJPZ 231700Z 2318/2403 13005KT 9999 SCT020 BKN035 TEMPO 2318/2321 -RA

Orai ataskaitas ir orų prognozės (METAR, TAF).

turimą stotys yra geltonos ir raudonos taškus žemėlapyje.

Perkelti pele per norėdami pamatyti stoties vardą.

Tada spustelėkite, norėdami matyti oro stebėjimo ir prognozės.

Norėdami pakeisti žemėlapį: spustelėkite ant žalios mygtukų su juodo kryžiaus žemyn,; žalią mygtuką su brūkšneliu, jei norite nutolinti; arba žalių rodyklių gretimoms žemėlapius.


METAR-TAF: